»·PEaware :: SWA250 KABQ-KDAL

SWA250 :: KABQ-KDAL

FLIGHT INFORMATION

Flight Status: Arrived
Operator:
Southwest Airlines
More flights by this operator :: More flights under this callsign
Pilot: Andrew J. (13363)
Aircraft: BOEING 737-700
(B737)
More flights by this aircraft type
Origin: KABQ Albuquerque Intl Sunport
United States
Destination: KDAL Dallas Love
United States
More flights between these airports :: More routes between these airports
Route: DOOKK3 TXO TURKI NANDR3
File this flight plan on PilotEdge
Remarks: RMK / SIMBRIEF
Altitude:
(Current/Filed)
37,000ft
Speed:
(Current/Filed)
465kts
Departed: 21-Sep-19 08:59 PM
Arrived: 21-Sep-19 10:18 PM
Distance/Time
Traveled:
503nm/1:18
Distance/Time
To Go:
Arrived

Flight Plot

Page will automatically refresh every two minutes.

Flight plan parsing failed; only flown route is shown


Map Options




Map Legend


Flown Route
Filed Route
Departure Airport
Arrival Airport
Navaid (VOR, NDB)
Fix

Horizontal Profiles

Position Reports

Time Latitude Longitude Heading Altitude Ground
Speed
21-Sep-19 20:28 35.046936 -106.614488 341 5316ft 0kts
21-Sep-19 20:29 35.046936 -106.614488 341 5316ft 0kts
21-Sep-19 20:30 35.046936 -106.614488 341 5316ft 0kts
21-Sep-19 20:31 35.046936 -106.614488 341 5316ft 0kts
21-Sep-19 20:32 35.046936 -106.614488 341 5316ft 0kts
21-Sep-19 20:33 35.046936 -106.614488 341 5316ft 0kts
21-Sep-19 20:34 35.046936 -106.614488 341 5316ft 0kts
21-Sep-19 20:35 35.046936 -106.614488 341 5316ft 0kts
21-Sep-19 20:36 35.046936 -106.614488 341 5316ft 0kts
21-Sep-19 20:37 35.046936 -106.614488 341 5316ft 0kts
21-Sep-19 20:39 35.046936 -106.614488 341 5316ft 0kts
21-Sep-19 20:40 35.046936 -106.614488 341 5316ft 0kts
21-Sep-19 20:46 35.046936 -106.614488 341 5316ft 0kts
21-Sep-19 20:47 35.046936 -106.614488 341 5316ft 0kts
21-Sep-19 20:48 35.046936 -106.614488 341 5316ft 0kts
21-Sep-19 20:49 35.046936 -106.614488 341 5316ft 0kts
21-Sep-19 20:50 35.046936 -106.614488 341 5316ft 0kts
21-Sep-19 20:51 35.046462 -106.614420 39 5316ft 2kts
21-Sep-19 20:52 35.046366 -106.614723 90 5316ft 0kts
21-Sep-19 20:53 35.046366 -106.614723 90 5316ft 0kts
21-Sep-19 20:54 35.046366 -106.614723 90 5316ft 0kts
21-Sep-19 20:55 35.046255 -106.613859 111 5316ft 5kts
21-Sep-19 20:56 35.044940 -106.613737 185 5316ft 9kts
21-Sep-19 20:57 35.042419 -106.612149 90 5316ft 9kts
21-Sep-19 20:58 35.042435 -106.607998 90 5316ft 19kts
21-Sep-19 20:59 35.036815 -106.613035 224 5316ft 117kts
21-Sep-19 21:00 35.003651 -106.652141 222 6878ft 187kts
21-Sep-19 21:01 34.958206 -106.702144 211 8190ft 258kts
21-Sep-19 21:01 34.897129 -106.696158 146 10158ft 304kts
21-Sep-19 21:03 34.824829 -106.594925 114 12513ft 357kts
21-Sep-19 21:04 34.804115 -106.474237 99 15169ft 376kts
21-Sep-19 21:04 34.791669 -106.377737 100 16944ft 394kts
21-Sep-19 21:06 34.770582 -106.220221 102 19574ft 417kts
21-Sep-19 21:06 34.757161 -106.101794 97 21396ft 433kts
21-Sep-19 21:08 34.749650 -105.927782 98 23802ft 448kts
21-Sep-19 21:09 34.743369 -105.773909 98 25656ft 461kts
21-Sep-19 21:09 34.738165 -105.642756 99 27078ft 472kts
21-Sep-19 21:10 34.731942 -105.481095 99 28677ft 484kts
21-Sep-19 21:11 34.725800 -105.315490 99 30196ft 494kts
21-Sep-19 21:12 34.719829 -105.147598 99 31732ft 498kts
21-Sep-19 21:13 34.714017 -104.978729 98 33197ft 502kts
21-Sep-19 21:14 34.708407 -104.808771 98 34640ft 502kts
21-Sep-19 21:15 34.702709 -104.639767 101 36083ft 496kts
21-Sep-19 21:16 34.684565 -104.473777 105 37029ft 499kts
21-Sep-19 21:17 34.663971 -104.304983 105 37017ft 503kts
21-Sep-19 21:18 34.643707 -104.136803 105 37020ft 502kts
21-Sep-19 21:19 34.623661 -103.968613 105 37023ft 501kts
21-Sep-19 21:20 34.603931 -103.801172 104 37025ft 500kts
21-Sep-19 21:21 34.584421 -103.633698 104 37108ft 500kts
21-Sep-19 21:22 34.565235 -103.466960 104 37110ft 499kts
21-Sep-19 21:23 34.546256 -103.299887 104 37098ft 497kts
21-Sep-19 21:24 34.527554 -103.133276 104 37100ft 497kts
21-Sep-19 21:25 34.509154 -102.967505 103 37102ft 496kts
21-Sep-19 21:26 34.490649 -102.798103 103 37104ft 512kts
21-Sep-19 21:27 34.471390 -102.628780 103 37079ft 509kts
21-Sep-19 21:28 34.451900 -102.458562 103 37081ft 508kts
21-Sep-19 21:29 34.432721 -102.288725 103 37071ft 506kts
21-Sep-19 21:30 34.413870 -102.119865 103 37072ft 506kts
21-Sep-19 21:31 34.395231 -101.950923 102 37052ft 505kts
21-Sep-19 21:32 34.376875 -101.782408 102 37049ft 504kts
21-Sep-19 21:33 34.358831 -101.614682 102 37051ft 503kts
21-Sep-19 21:34 34.341001 -101.446787 101 37052ft 502kts
21-Sep-19 21:35 34.323445 -101.279062 102 37043ft 501kts
21-Sep-19 21:36 34.306126 -101.111611 101 37045ft 500kts
21-Sep-19 21:37 34.287063 -100.945244 103 37047ft 498kts
21-Sep-19 21:38 34.266753 -100.779334 102 37048ft 497kts
21-Sep-19 21:39 34.246812 -100.614184 102 37049ft 497kts
21-Sep-19 21:40 34.226934 -100.447615 102 37050ft 504kts
21-Sep-19 21:41 34.207273 -100.280719 102 37043ft 501kts
21-Sep-19 21:42 34.179037 -100.116838 107 37044ft 497kts
21-Sep-19 21:43 34.148920 -99.954132 106 37046ft 497kts
21-Sep-19 21:44 34.118995 -99.791089 106 37047ft 497kts
21-Sep-19 21:45 34.089281 -99.628020 106 37048ft 497kts
21-Sep-19 21:46 34.059845 -99.465301 105 37049ft 497kts
21-Sep-19 21:47 34.030700 -99.302965 106 37042ft 496kts
21-Sep-19 21:48 33.988005 -99.145606 115 37036ft 491kts
21-Sep-19 21:49 33.939276 -98.992277 114 37044ft 491kts
21-Sep-19 21:50 33.890760 -98.838856 114 36969ft 488kts
21-Sep-19 21:51 33.843502 -98.688781 114 34750ft 471kts
21-Sep-19 21:52 33.797879 -98.543473 114 32322ft 467kts
21-Sep-19 21:53 33.752536 -98.401007 115 29993ft 447kts
21-Sep-19 21:54 33.708950 -98.267487 115 27617ft 433kts
21-Sep-19 21:55 33.665777 -98.134681 114 25209ft 419kts
21-Sep-19 21:56 33.624233 -98.006468 114 22840ft 407kts
21-Sep-19 21:57 33.583205 -97.879441 114 19843ft 409kts
21-Sep-19 21:58 33.542452 -97.752816 114 16847ft 405kts
21-Sep-19 21:59 33.502838 -97.629320 114 14174ft 388kts
21-Sep-19 22:00 33.471984 -97.532768 114 12239ft 342kts
21-Sep-19 22:01 33.437399 -97.435141 122 10314ft 297kts
21-Sep-19 22:02 33.400556 -97.354186 122 9061ft 260kts
21-Sep-19 22:03 33.365855 -97.276776 122 7937ft 265kts
21-Sep-19 22:04 33.332206 -97.201471 122 6905ft 249kts
21-Sep-19 22:05 33.298664 -97.126871 122 5995ft 256kts
21-Sep-19 22:06 33.264530 -97.051254 122 5983ft 258kts
21-Sep-19 22:07 33.231418 -96.977829 121 5317ft 241kts
21-Sep-19 22:08 33.185827 -96.935103 181 4777ft 224kts
21-Sep-19 22:09 33.131179 -96.963426 211 4031ft 214kts
21-Sep-19 22:10 33.078668 -96.994310 196 3094ft 202kts
21-Sep-19 22:11 33.025672 -97.007524 174 2484ft 185kts
21-Sep-19 22:12 32.977145 -96.995116 143 2469ft 175kts
21-Sep-19 22:13 32.941759 -96.954751 138 2487ft 176kts
21-Sep-19 22:14 32.909953 -96.917802 138 1939ft 153kts
21-Sep-19 22:15 32.883486 -96.887399 137 1219ft 146kts
21-Sep-19 22:16 32.855325 -96.854572 134 490ft 134kts
21-Sep-19 22:17 32.844571 -96.842716 264 487ft 4kts
21-Sep-19 22:18 32.844597 -96.843554 275 486ft 1kts
21-Sep-19 22:19 32.845575 -96.845062 317 487ft 12kts
21-Sep-19 22:20 32.847563 -96.848063 241 484ft 10kts
21-Sep-19 22:21 32.846767 -96.849369 181 481ft 3kts
21-Sep-19 22:22 32.846471 -96.849376 181 481ft 0kts
21-Sep-19 22:23 32.865932 -96.866893 137 726ft 140kts
21-Sep-19 22:24 32.849613 -96.848008 135 487ft 108kts
21-Sep-19 22:25 32.851370 -96.849995 136 485ft 119kts
21-Sep-19 22:26 32.846471 -96.849376 181 481ft 0kts
21-Sep-19 22:27 32.846471 -96.849376 181 481ft 0kts

Navigation Log

Ident Type
Flight plan parsing failed, navigation log unavailable